KLUK

Cincinnati Municipal Lunken Field Airport

Cincinnati, Ohio, USA
METAR KLUK 190253Z 20010KT 10SM CLR M04/M11 A3026 RMK AO2 SLP253 T10441106 58005
Observed Flight Rules
Jan-19 @ 02:53 UTC (57 minutes ago) Visual Flight Rules
Wind Visibility Clouds
200° at 10 knots 10 miles
  • Clear skies
Temperatures Readings
Current -4°C / 25°F
Dewpoint -11°C / 12°F
Humidity 59%
Altimeter 30.26" Hg
Pressure 1025.3 hPa
Elevation 155
METAR KLUK 190253Z 20010KT 10SM CLR M04/M11 A3026 RMK AO2 SLP253 T10441106 58005
Observed Flight Rules
Jan-19 @ 02:53 UTC
(57 minutes ago)
VFR
Wind Visibility
200° at 10 knots 10 miles
Clouds
  • Clear skies
Temperature Dewpoint
-4°C / 25°F -11°C / 12°F
Humidity Altimeter Pressure
59% 30.26" Hg 1025.3 hPa